sensor_id;sensor_type;location;lat;lon;timestamp;P1;durP1;ratioP1;P2;durP2;ratioP2
63536;SDS011;49686;51.880;5.632;2023-02-05T00:02:04;37.53;;;12.75;;
63536;SDS011;49686;51.880;5.632;2023-02-05T00:04:31;48.17;;;15.80;;
63536;SDS011;49686;51.880;5.632;2023-02-05T00:06:58;47.15;;;16.25;;
63536;SDS011;49686;51.880;5.632;2023-02-05T00:09:25;46.30;;;16.65;;
63536;SDS011;49686;51.880;5.632;2023-02-05T00:11:52;44.85;;;14.50;;
63536;SDS011;49686;51.880;5.632;2023-02-05T00:14:20;59.83;;;18.15;;
63536;SDS011;49686;51.880;5.632;2023-02-05T00:16:46;54.63;;;18.48;;
63536;SDS011;49686;51.880;5.632;2023-02-05T00:19:14;50.80;;;16.85;;
63536;SDS011;49686;51.880;5.632;2023-02-05T00:21:40;58.42;;;18.83;;
63536;SDS011;49686;51.880;5.632;2023-02-05T00:24:07;47.75;;;17.10;;
63536;SDS011;49686;51.880;5.632;2023-02-05T00:26:34;48.05;;;16.95;;
63536;SDS011;49686;51.880;5.632;2023-02-05T00:29:01;42.55;;;16.27;;
63536;SDS011;49686;51.880;5.632;2023-02-05T00:31:30;58.90;;;19.42;;
63536;SDS011;49686;51.880;5.632;2023-02-05T00:33:57;55.38;;;18.38;;
63536;SDS011;49686;51.880;5.632;2023-02-05T00:36:24;45.63;;;16.70;;
63536;SDS011;49686;51.880;5.632;2023-02-05T00:38:51;59.70;;;20.33;;
63536;SDS011;49686;51.880;5.632;2023-02-05T00:41:18;51.65;;;18.63;;
63536;SDS011;49686;51.880;5.632;2023-02-05T00:43:45;57.83;;;19.98;;
63536;SDS011;49686;51.880;5.632;2023-02-05T00:46:12;50.92;;;19.55;;
63536;SDS011;49686;51.880;5.632;2023-02-05T00:48:41;59.35;;;21.73;;
63536;SDS011;49686;51.880;5.632;2023-02-05T00:51:08;49.95;;;17.20;;
63536;SDS011;49686;51.880;5.632;2023-02-05T00:53:35;49.03;;;17.05;;
63536;SDS011;49686;51.880;5.632;2023-02-05T00:56:02;59.55;;;21.33;;
63536;SDS011;49686;51.880;5.632;2023-02-05T00:58:30;66.10;;;22.00;;
63536;SDS011;49686;51.880;5.632;2023-02-05T01:00:57;57.33;;;20.00;;
63536;SDS011;49686;51.880;5.632;2023-02-05T01:03:24;64.07;;;21.15;;
63536;SDS011;49686;51.880;5.632;2023-02-05T01:05:52;55.58;;;20.85;;
63536;SDS011;49686;51.880;5.632;2023-02-05T01:08:19;62.70;;;23.30;;
63536;SDS011;49686;51.880;5.632;2023-02-05T01:10:47;54.50;;;19.73;;
63536;SDS011;49686;51.880;5.632;2023-02-05T01:13:15;58.88;;;21.40;;
63536;SDS011;49686;51.880;5.632;2023-02-05T01:15:43;55.17;;;21.75;;
63536;SDS011;49686;51.880;5.632;2023-02-05T01:18:11;51.50;;;21.03;;
63536;SDS011;49686;51.880;5.632;2023-02-05T01:20:39;52.13;;;21.50;;
63536;SDS011;49686;51.880;5.632;2023-02-05T01:23:08;51.85;;;21.00;;
63536;SDS011;49686;51.880;5.632;2023-02-05T01:25:36;59.65;;;22.88;;
63536;SDS011;49686;51.880;5.632;2023-02-05T01:28:03;56.70;;;22.48;;
63536;SDS011;49686;51.880;5.632;2023-02-05T01:30:30;51.42;;;20.70;;
63536;SDS011;49686;51.880;5.632;2023-02-05T01:32:57;51.95;;;20.92;;
63536;SDS011;49686;51.880;5.632;2023-02-05T01:35:24;57.95;;;23.23;;
63536;SDS011;49686;51.880;5.632;2023-02-05T01:37:52;56.80;;;21.83;;
63536;SDS011;49686;51.880;5.632;2023-02-05T01:40:21;54.83;;;21.40;;
63536;SDS011;49686;51.880;5.632;2023-02-05T01:42:48;50.22;;;20.38;;
63536;SDS011;49686;51.880;5.632;2023-02-05T01:48:30;49.40;;;21.13;;
63536;SDS011;49686;51.880;5.632;2023-02-05T01:51:02;48.33;;;20.27;;
63536;SDS011;49686;51.880;5.632;2023-02-05T01:53:31;38.70;;;16.98;;
63536;SDS011;49686;51.880;5.632;2023-02-05T01:56:03;46.70;;;21.00;;
63536;SDS011;49686;51.880;5.632;2023-02-05T01:58:37;49.75;;;20.13;;
63536;SDS011;49686;51.880;5.632;2023-02-05T02:01:08;63.50;;;23.67;;
63536;SDS011;49686;51.880;5.632;2023-02-05T02:03:34;57.30;;;22.25;;
63536;SDS011;49686;51.880;5.632;2023-02-05T02:06:02;49.28;;;19.10;;
63536;SDS011;49686;51.880;5.632;2023-02-05T02:08:29;54.63;;;21.27;;
63536;SDS011;49686;51.880;5.632;2023-02-05T02:10:56;52.10;;;22.25;;
63536;SDS011;49686;51.880;5.632;2023-02-05T02:13:27;56.08;;;21.70;;
63536;SDS011;49686;51.880;5.632;2023-02-05T02:15:59;54.35;;;21.92;;
63536;SDS011;49686;51.880;5.632;2023-02-05T02:18:26;52.47;;;20.02;;
63536;SDS011;49686;51.880;5.632;2023-02-05T02:20:59;56.80;;;21.00;;
63536;SDS011;49686;51.880;5.632;2023-02-05T02:23:51;48.33;;;20.67;;
63536;SDS011;49686;51.880;5.632;2023-02-05T02:26:52;42.20;;;18.35;;
63536;SDS011;49686;51.880;5.632;2023-02-05T02:29:30;51.33;;;22.08;;
63536;SDS011;49686;51.880;5.632;2023-02-05T02:32:02;44.50;;;19.80;;
63536;SDS011;49686;51.880;5.632;2023-02-05T02:34:37;50.03;;;21.33;;
63536;SDS011;49686;51.880;5.632;2023-02-05T02:37:07;40.08;;;19.33;;
63536;SDS011;49686;51.880;5.632;2023-02-05T02:39:38;44.75;;;19.88;;
63536;SDS011;49686;51.880;5.632;2023-02-05T02:42:08;50.28;;;20.83;;
63536;SDS011;49686;51.880;5.632;2023-02-05T02:44:44;40.67;;;19.65;;
63536;SDS011;49686;51.880;5.632;2023-02-05T02:47:14;39.10;;;17.10;;
63536;SDS011;49686;51.880;5.632;2023-02-05T02:49:46;44.63;;;20.10;;
63536;SDS011;49686;51.880;5.632;2023-02-05T02:52:16;42.65;;;19.15;;
63536;SDS011;49686;51.880;5.632;2023-02-05T02:54:46;42.67;;;19.45;;
63536;SDS011;49686;51.880;5.632;2023-02-05T02:57:16;45.15;;;19.02;;
63536;SDS011;49686;51.880;5.632;2023-02-05T02:59:46;42.88;;;18.75;;
63536;SDS011;49686;51.880;5.632;2023-02-05T03:02:15;37.50;;;17.40;;
63536;SDS011;49686;51.880;5.632;2023-02-05T03:04:43;40.13;;;18.02;;
63536;SDS011;49686;51.880;5.632;2023-02-05T03:07:16;33.78;;;15.98;;
63536;SDS011;49686;51.880;5.632;2023-02-05T03:09:48;34.35;;;15.48;;
63536;SDS011;49686;51.880;5.632;2023-02-05T03:12:21;34.40;;;16.20;;
63536;SDS011;49686;51.880;5.632;2023-02-05T03:14:51;31.40;;;14.88;;
63536;SDS011;49686;51.880;5.632;2023-02-05T03:17:18;32.67;;;14.60;;
63536;SDS011;49686;51.880;5.632;2023-02-05T03:19:47;31.33;;;14.80;;
63536;SDS011;49686;51.880;5.632;2023-02-05T03:22:18;29.85;;;14.70;;
63536;SDS011;49686;51.880;5.632;2023-02-05T03:24:45;35.10;;;14.82;;
63536;SDS011;49686;51.880;5.632;2023-02-05T03:27:12;24.98;;;13.38;;
63536;SDS011;49686;51.880;5.632;2023-02-05T03:29:39;28.35;;;13.90;;
63536;SDS011;49686;51.880;5.632;2023-02-05T03:32:11;32.70;;;13.32;;
63536;SDS011;49686;51.880;5.632;2023-02-05T03:34:47;22.42;;;12.32;;
63536;SDS011;49686;51.880;5.632;2023-02-05T03:37:21;18.90;;;9.57;;
63536;SDS011;49686;51.880;5.632;2023-02-05T03:39:59;21.15;;;9.95;;
63536;SDS011;49686;51.880;5.632;2023-02-05T03:42:35;27.75;;;12.90;;
63536;SDS011;49686;51.880;5.632;2023-02-05T03:45:31;19.67;;;11.15;;
63536;SDS011;49686;51.880;5.632;2023-02-05T03:48:13;23.45;;;12.02;;
63536;SDS011;49686;51.880;5.632;2023-02-05T03:50:48;21.90;;;10.68;;
63536;SDS011;49686;51.880;5.632;2023-02-05T03:53:22;24.85;;;12.70;;
63536;SDS011;49686;51.880;5.632;2023-02-05T03:55:55;23.98;;;12.57;;
63536;SDS011;49686;51.880;5.632;2023-02-05T03:58:26;19.13;;;9.18;;
63536;SDS011;49686;51.880;5.632;2023-02-05T04:00:59;20.60;;;10.43;;
63536;SDS011;49686;51.880;5.632;2023-02-05T04:03:28;24.77;;;13.32;;
63536;SDS011;49686;51.880;5.632;2023-02-05T04:05:55;25.33;;;12.68;;
63536;SDS011;49686;51.880;5.632;2023-02-05T04:08:21;24.50;;;12.77;;
63536;SDS011;49686;51.880;5.632;2023-02-05T04:10:48;24.33;;;13.35;;
63536;SDS011;49686;51.880;5.632;2023-02-05T04:13:15;25.52;;;12.65;;
63536;SDS011;49686;51.880;5.632;2023-02-05T04:15:42;24.98;;;13.20;;
63536;SDS011;49686;51.880;5.632;2023-02-05T04:18:09;25.73;;;13.73;;
63536;SDS011;49686;51.880;5.632;2023-02-05T04:20:38;28.10;;;13.05;;
63536;SDS011;49686;51.880;5.632;2023-02-05T04:23:05;25.83;;;13.57;;
63536;SDS011;49686;51.880;5.632;2023-02-05T04:25:32;28.23;;;14.07;;
63536;SDS011;49686;51.880;5.632;2023-02-05T04:27:59;23.60;;;11.95;;
63536;SDS011;49686;51.880;5.632;2023-02-05T04:30:26;20.10;;;11.30;;
63536;SDS011;49686;51.880;5.632;2023-02-05T04:32:53;25.52;;;12.45;;
63536;SDS011;49686;51.880;5.632;2023-02-05T04:35:19;27.42;;;14.07;;
63536;SDS011;49686;51.880;5.632;2023-02-05T04:37:48;31.10;;;14.65;;
63536;SDS011;49686;51.880;5.632;2023-02-05T04:40:14;25.27;;;13.47;;
63536;SDS011;49686;51.880;5.632;2023-02-05T04:42:42;30.48;;;15.68;;
63536;SDS011;49686;51.880;5.632;2023-02-05T04:45:10;28.75;;;15.07;;
63536;SDS011;49686;51.880;5.632;2023-02-05T04:47:37;25.65;;;13.30;;
63536;SDS011;49686;51.880;5.632;2023-02-05T04:50:04;31.77;;;14.90;;
63536;SDS011;49686;51.880;5.632;2023-02-05T04:52:31;29.30;;;14.65;;
63536;SDS011;49686;51.880;5.632;2023-02-05T04:55:00;27.45;;;14.18;;
63536;SDS011;49686;51.880;5.632;2023-02-05T04:57:26;27.50;;;12.93;;
63536;SDS011;49686;51.880;5.632;2023-02-05T04:59:55;25.20;;;12.90;;
63536;SDS011;49686;51.880;5.632;2023-02-05T05:02:24;29.67;;;13.55;;
63536;SDS011;49686;51.880;5.632;2023-02-05T05:04:52;30.73;;;14.10;;
63536;SDS011;49686;51.880;5.632;2023-02-05T05:07:18;28.85;;;12.93;;
63536;SDS011;49686;51.880;5.632;2023-02-05T05:09:45;26.13;;;14.52;;
63536;SDS011;49686;51.880;5.632;2023-02-05T05:12:13;31.58;;;14.43;;
63536;SDS011;49686;51.880;5.632;2023-02-05T05:14:43;30.73;;;15.13;;
63536;SDS011;49686;51.880;5.632;2023-02-05T05:17:10;26.88;;;14.70;;
63536;SDS011;49686;51.880;5.632;2023-02-05T05:19:37;24.90;;;12.70;;
63536;SDS011;49686;51.880;5.632;2023-02-05T05:22:04;26.30;;;13.52;;
63536;SDS011;49686;51.880;5.632;2023-02-05T05:24:30;21.83;;;13.52;;
63536;SDS011;49686;51.880;5.632;2023-02-05T05:26:57;24.55;;;12.70;;
63536;SDS011;49686;51.880;5.632;2023-02-05T05:29:27;20.00;;;11.45;;
63536;SDS011;49686;51.880;5.632;2023-02-05T05:31:54;24.80;;;13.85;;
63536;SDS011;49686;51.880;5.632;2023-02-05T05:34:20;25.08;;;14.25;;
63536;SDS011;49686;51.880;5.632;2023-02-05T05:36:47;21.38;;;13.35;;
63536;SDS011;49686;51.880;5.632;2023-02-05T05:39:14;19.48;;;13.10;;
63536;SDS011;49686;51.880;5.632;2023-02-05T05:41:41;20.33;;;12.85;;
63536;SDS011;49686;51.880;5.632;2023-02-05T05:44:08;21.73;;;12.07;;
63536;SDS011;49686;51.880;5.632;2023-02-05T05:46:37;23.60;;;12.37;;
63536;SDS011;49686;51.880;5.632;2023-02-05T05:49:04;18.02;;;11.27;;
63536;SDS011;49686;51.880;5.632;2023-02-05T05:51:31;22.75;;;11.52;;
63536;SDS011;49686;51.880;5.632;2023-02-05T05:53:58;15.23;;;9.63;;
63536;SDS011;49686;51.880;5.632;2023-02-05T05:56:25;20.95;;;9.50;;
63536;SDS011;49686;51.880;5.632;2023-02-05T05:58:51;15.40;;;8.95;;
63536;SDS011;49686;51.880;5.632;2023-02-05T06:01:18;15.48;;;9.63;;
63536;SDS011;49686;51.880;5.632;2023-02-05T06:03:47;13.43;;;8.10;;
63536;SDS011;49686;51.880;5.632;2023-02-05T06:06:14;14.15;;;7.00;;
63536;SDS011;49686;51.880;5.632;2023-02-05T06:08:41;12.73;;;6.70;;
63536;SDS011;49686;51.880;5.632;2023-02-05T06:11:08;9.38;;;5.70;;
63536;SDS011;49686;51.880;5.632;2023-02-05T06:13:35;8.63;;;6.03;;
63536;SDS011;49686;51.880;5.632;2023-02-05T06:16:02;9.02;;;5.57;;
63536;SDS011;49686;51.880;5.632;2023-02-05T06:18:29;6.85;;;3.75;;
63536;SDS011;49686;51.880;5.632;2023-02-05T06:20:58;3.55;;;1.73;;
63536;SDS011;49686;51.880;5.632;2023-02-05T06:23:24;2.30;;;0.93;;
63536;SDS011;49686;51.880;5.632;2023-02-05T06:25:51;2.88;;;1.10;;
63536;SDS011;49686;51.880;5.632;2023-02-05T06:28:18;4.28;;;1.70;;
63536;SDS011;49686;51.880;5.632;2023-02-05T06:30:45;11.48;;;1.98;;
63536;SDS011;49686;51.880;5.632;2023-02-05T06:35:41;5.53;;;1.10;;
63536;SDS011;49686;51.880;5.632;2023-02-05T06:38:09;4.18;;;1.00;;
63536;SDS011;49686;51.880;5.632;2023-02-05T06:40:36;2.90;;;1.27;;
63536;SDS011;49686;51.880;5.632;2023-02-05T06:43:02;4.90;;;0.95;;
63536;SDS011;49686;51.880;5.632;2023-02-05T06:45:29;6.07;;;2.05;;
63536;SDS011;49686;51.880;5.632;2023-02-05T06:47:57;4.45;;;1.15;;
63536;SDS011;49686;51.880;5.632;2023-02-05T06:50:23;5.05;;;1.63;;
63536;SDS011;49686;51.880;5.632;2023-02-05T06:52:50;4.65;;;1.35;;
63536;SDS011;49686;51.880;5.632;2023-02-05T06:55:19;3.90;;;0.90;;
63536;SDS011;49686;51.880;5.632;2023-02-05T06:57:46;5.50;;;1.10;;
63536;SDS011;49686;51.880;5.632;2023-02-05T07:00:13;3.60;;;1.58;;
63536;SDS011;49686;51.880;5.632;2023-02-05T07:02:40;6.22;;;1.38;;
63536;SDS011;49686;51.880;5.632;2023-02-05T07:05:08;4.60;;;1.13;;
63536;SDS011;49686;51.880;5.632;2023-02-05T07:07:35;2.33;;;0.52;;
63536;SDS011;49686;51.880;5.632;2023-02-05T07:10:02;2.90;;;0.80;;
63536;SDS011;49686;51.880;5.632;2023-02-05T07:12:31;3.45;;;0.55;;
63536;SDS011;49686;51.880;5.632;2023-02-05T07:14:58;2.23;;;0.63;;
63536;SDS011;49686;51.880;5.632;2023-02-05T07:17:25;2.55;;;1.05;;
63536;SDS011;49686;51.880;5.632;2023-02-05T07:19:51;7.32;;;0.88;;
63536;SDS011;49686;51.880;5.632;2023-02-05T07:22:18;6.25;;;1.30;;
63536;SDS011;49686;51.880;5.632;2023-02-05T07:24:45;5.35;;;1.05;;
63536;SDS011;49686;51.880;5.632;2023-02-05T07:27:12;7.47;;;1.02;;
63536;SDS011;49686;51.880;5.632;2023-02-05T07:29:40;10.93;;;1.15;;
63536;SDS011;49686;51.880;5.632;2023-02-05T07:32:07;6.90;;;1.05;;
63536;SDS011;49686;51.880;5.632;2023-02-05T07:34:34;6.47;;;1.08;;
63536;SDS011;49686;51.880;5.632;2023-02-05T07:37:00;7.55;;;0.95;;
63536;SDS011;49686;51.880;5.632;2023-02-05T07:39:27;3.58;;;1.05;;
63536;SDS011;49686;51.880;5.632;2023-02-05T07:41:54;2.38;;;0.70;;
63536;SDS011;49686;51.880;5.632;2023-02-05T07:44:21;6.82;;;0.95;;
63536;SDS011;49686;51.880;5.632;2023-02-05T07:46:49;7.13;;;1.15;;
63536;SDS011;49686;51.880;5.632;2023-02-05T07:49:16;3.92;;;0.80;;
63536;SDS011;49686;51.880;5.632;2023-02-05T07:51:43;4.28;;;0.93;;
63536;SDS011;49686;51.880;5.632;2023-02-05T07:54:11;8.63;;;1.35;;
63536;SDS011;49686;51.880;5.632;2023-02-05T07:56:38;5.53;;;1.20;;
63536;SDS011;49686;51.880;5.632;2023-02-05T07:59:05;4.70;;;0.93;;
63536;SDS011;49686;51.880;5.632;2023-02-05T08:01:32;8.15;;;1.00;;
63536;SDS011;49686;51.880;5.632;2023-02-05T08:04:00;10.35;;;1.45;;
63536;SDS011;49686;51.880;5.632;2023-02-05T08:06:27;7.45;;;0.90;;
63536;SDS011;49686;51.880;5.632;2023-02-05T08:08:54;8.73;;;1.48;;
63536;SDS011;49686;51.880;5.632;2023-02-05T08:11:22;8.68;;;1.50;;
63536;SDS011;49686;51.880;5.632;2023-02-05T08:13:48;7.30;;;1.35;;
63536;SDS011;49686;51.880;5.632;2023-02-05T08:16:15;7.55;;;1.25;;
63536;SDS011;49686;51.880;5.632;2023-02-05T08:18:43;13.40;;;1.45;;
63536;SDS011;49686;51.880;5.632;2023-02-05T08:21:14;14.77;;;1.67;;
63536;SDS011;49686;51.880;5.632;2023-02-05T08:23:43;13.70;;;2.60;;
63536;SDS011;49686;51.880;5.632;2023-02-05T08:26:10;10.80;;;1.88;;
63536;SDS011;49686;51.880;5.632;2023-02-05T08:28:37;14.80;;;1.85;;
63536;SDS011;49686;51.880;5.632;2023-02-05T08:31:08;12.15;;;2.72;;
63536;SDS011;49686;51.880;5.632;2023-02-05T08:33:35;10.18;;;1.60;;
63536;SDS011;49686;51.880;5.632;2023-02-05T08:36:02;13.57;;;2.75;;
63536;SDS011;49686;51.880;5.632;2023-02-05T08:38:31;11.43;;;1.63;;
63536;SDS011;49686;51.880;5.632;2023-02-05T08:40:57;11.47;;;1.73;;
63536;SDS011;49686;51.880;5.632;2023-02-05T08:43:28;11.50;;;2.17;;
63536;SDS011;49686;51.880;5.632;2023-02-05T08:45:55;10.73;;;1.48;;
63536;SDS011;49686;51.880;5.632;2023-02-05T08:48:22;14.98;;;2.08;;
63536;SDS011;49686;51.880;5.632;2023-02-05T08:50:48;14.32;;;2.10;;
63536;SDS011;49686;51.880;5.632;2023-02-05T08:53:16;17.90;;;1.95;;
63536;SDS011;49686;51.880;5.632;2023-02-05T08:55:44;11.25;;;1.95;;
63536;SDS011;49686;51.880;5.632;2023-02-05T08:58:21;13.15;;;2.45;;
63536;SDS011;49686;51.880;5.632;2023-02-05T09:00:48;16.42;;;2.25;;
63536;SDS011;49686;51.880;5.632;2023-02-05T09:03:15;10.85;;;1.95;;
63536;SDS011;49686;51.880;5.632;2023-02-05T09:05:42;11.68;;;1.85;;
63536;SDS011;49686;51.880;5.632;2023-02-05T09:08:09;13.15;;;2.33;;
63536;SDS011;49686;51.880;5.632;2023-02-05T09:10:36;9.35;;;1.58;;
63536;SDS011;49686;51.880;5.632;2023-02-05T09:13:04;12.52;;;2.03;;
63536;SDS011;49686;51.880;5.632;2023-02-05T09:15:31;12.25;;;1.48;;
63536;SDS011;49686;51.880;5.632;2023-02-05T09:18:00;18.50;;;2.10;;
63536;SDS011;49686;51.880;5.632;2023-02-05T09:20:27;12.50;;;1.75;;
63536;SDS011;49686;51.880;5.632;2023-02-05T09:22:53;16.75;;;2.08;;
63536;SDS011;49686;51.880;5.632;2023-02-05T09:25:20;24.35;;;2.70;;
63536;SDS011;49686;51.880;5.632;2023-02-05T09:27:47;13.77;;;1.63;;
63536;SDS011;49686;51.880;5.632;2023-02-05T09:30:18;11.13;;;1.35;;
63536;SDS011;49686;51.880;5.632;2023-02-05T09:32:45;10.80;;;1.25;;
63536;SDS011;49686;51.880;5.632;2023-02-05T09:35:12;19.17;;;3.38;;
63536;SDS011;49686;51.880;5.632;2023-02-05T09:37:40;19.38;;;3.53;;
63536;SDS011;49686;51.880;5.632;2023-02-05T09:40:08;17.95;;;2.70;;
63536;SDS011;49686;51.880;5.632;2023-02-05T09:42:48;13.55;;;2.10;;
63536;SDS011;49686;51.880;5.632;2023-02-05T09:45:29;19.77;;;2.55;;
63536;SDS011;49686;51.880;5.632;2023-02-05T09:48:07;19.55;;;2.38;;
63536;SDS011;49686;51.880;5.632;2023-02-05T09:50:50;16.70;;;2.92;;
63536;SDS011;49686;51.880;5.632;2023-02-05T09:53:18;10.93;;;2.25;;
63536;SDS011;49686;51.880;5.632;2023-02-05T09:55:47;18.55;;;2.33;;
63536;SDS011;49686;51.880;5.632;2023-02-05T09:58:16;14.52;;;2.63;;
63536;SDS011;49686;51.880;5.632;2023-02-05T10:00:46;22.33;;;2.63;;
63536;SDS011;49686;51.880;5.632;2023-02-05T10:03:17;16.00;;;2.30;;
63536;SDS011;49686;51.880;5.632;2023-02-05T10:05:56;17.70;;;2.50;;
63536;SDS011;49686;51.880;5.632;2023-02-05T10:08:38;20.17;;;2.30;;
63536;SDS011;49686;51.880;5.632;2023-02-05T10:11:13;17.88;;;3.00;;
63536;SDS011;49686;51.880;5.632;2023-02-05T10:13:46;16.48;;;2.85;;
63536;SDS011;49686;51.880;5.632;2023-02-05T10:19:20;14.27;;;2.70;;
63536;SDS011;49686;51.880;5.632;2023-02-05T10:21:58;20.52;;;3.45;;
63536;SDS011;49686;51.880;5.632;2023-02-05T10:24:36;15.82;;;1.58;;
63536;SDS011;49686;51.880;5.632;2023-02-05T10:27:18;12.90;;;1.92;;
63536;SDS011;49686;51.880;5.632;2023-02-05T10:29:48;14.60;;;2.13;;
63536;SDS011;49686;51.880;5.632;2023-02-05T10:32:25;12.70;;;2.03;;
63536;SDS011;49686;51.880;5.632;2023-02-05T10:35:01;10.77;;;1.65;;
63536;SDS011;49686;51.880;5.632;2023-02-05T10:37:40;17.83;;;3.28;;
63536;SDS011;49686;51.880;5.632;2023-02-05T10:40:14;11.95;;;1.95;;
63536;SDS011;49686;51.880;5.632;2023-02-05T10:42:43;12.20;;;2.85;;
63536;SDS011;49686;51.880;5.632;2023-02-05T10:45:13;17.85;;;3.05;;
63536;SDS011;49686;51.880;5.632;2023-02-05T10:53:08;9.80;;;1.73;;
63536;SDS011;49686;51.880;5.632;2023-02-05T10:55:35;9.10;;;2.63;;
63536;SDS011;49686;51.880;5.632;2023-02-05T10:58:06;13.60;;;2.05;;
63536;SDS011;49686;51.880;5.632;2023-02-05T11:00:49;15.77;;;2.25;;
63536;SDS011;49686;51.880;5.632;2023-02-05T11:03:17;15.23;;;2.50;;
63536;SDS011;49686;51.880;5.632;2023-02-05T11:05:47;14.38;;;2.10;;
63536;SDS011;49686;51.880;5.632;2023-02-05T11:08:31;11.77;;;1.70;;
63536;SDS011;49686;51.880;5.632;2023-02-05T11:11:00;13.88;;;2.10;;
63536;SDS011;49686;51.880;5.632;2023-02-05T11:13:28;20.77;;;3.22;;
63536;SDS011;49686;51.880;5.632;2023-02-05T11:15:56;17.88;;;2.50;;
63536;SDS011;49686;51.880;5.632;2023-02-05T11:18:27;20.05;;;3.17;;
63536;SDS011;49686;51.880;5.632;2023-02-05T11:20:56;19.73;;;3.30;;
63536;SDS011;49686;51.880;5.632;2023-02-05T11:25:52;15.48;;;2.28;;
63536;SDS011;49686;51.880;5.632;2023-02-05T11:28:21;22.48;;;2.53;;
63536;SDS011;49686;51.880;5.632;2023-02-05T11:30:51;9.10;;;1.88;;
63536;SDS011;49686;51.880;5.632;2023-02-05T11:33:25;17.13;;;2.08;;
63536;SDS011;49686;51.880;5.632;2023-02-05T11:35:55;15.55;;;1.85;;
63536;SDS011;49686;51.880;5.632;2023-02-05T11:38:25;17.73;;;2.45;;
63536;SDS011;49686;51.880;5.632;2023-02-05T11:40:58;13.98;;;2.53;;
63536;SDS011;49686;51.880;5.632;2023-02-05T11:43:29;18.63;;;2.58;;
63536;SDS011;49686;51.880;5.632;2023-02-05T11:45:57;20.27;;;2.92;;
63536;SDS011;49686;51.880;5.632;2023-02-05T11:48:36;15.32;;;2.45;;
63536;SDS011;49686;51.880;5.632;2023-02-05T11:51:06;19.05;;;2.17;;
63536;SDS011;49686;51.880;5.632;2023-02-05T11:53:35;15.05;;;2.90;;
63536;SDS011;49686;51.880;5.632;2023-02-05T11:56:06;22.80;;;3.20;;
63536;SDS011;49686;51.880;5.632;2023-02-05T11:58:35;13.15;;;2.95;;
63536;SDS011;49686;51.880;5.632;2023-02-05T12:01:04;12.85;;;2.20;;
63536;SDS011;49686;51.880;5.632;2023-02-05T12:03:32;19.77;;;2.80;;
63536;SDS011;49686;51.880;5.632;2023-02-05T12:06:04;19.27;;;3.17;;
63536;SDS011;49686;51.880;5.632;2023-02-05T12:08:38;17.38;;;2.30;;
63536;SDS011;49686;51.880;5.632;2023-02-05T12:11:17;13.75;;;2.72;;
63536;SDS011;49686;51.880;5.632;2023-02-05T12:13:54;17.23;;;2.97;;
63536;SDS011;49686;51.880;5.632;2023-02-05T12:16:35;12.25;;;2.10;;
63536;SDS011;49686;51.880;5.632;2023-02-05T12:19:17;13.30;;;3.25;;
63536;SDS011;49686;51.880;5.632;2023-02-05T12:21:47;13.52;;;2.30;;
63536;SDS011;49686;51.880;5.632;2023-02-05T12:24:19;15.15;;;2.30;;
63536;SDS011;49686;51.880;5.632;2023-02-05T12:27:05;14.52;;;2.65;;
63536;SDS011;49686;51.880;5.632;2023-02-05T12:29:51;12.45;;;2.55;;
63536;SDS011;49686;51.880;5.632;2023-02-05T12:32:32;12.23;;;1.95;;
63536;SDS011;49686;51.880;5.632;2023-02-05T12:35:15;9.48;;;2.47;;
63536;SDS011;49686;51.880;5.632;2023-02-05T12:38:02;13.50;;;2.20;;
63536;SDS011;49686;51.880;5.632;2023-02-05T12:40:38;16.25;;;2.13;;
63536;SDS011;49686;51.880;5.632;2023-02-05T12:43:26;16.05;;;2.28;;
63536;SDS011;49686;51.880;5.632;2023-02-05T12:46:04;15.70;;;2.50;;
63536;SDS011;49686;51.880;5.632;2023-02-05T12:48:49;13.15;;;2.58;;
63536;SDS011;49686;51.880;5.632;2023-02-05T12:54:29;15.95;;;1.70;;
63536;SDS011;49686;51.880;5.632;2023-02-05T12:57:09;22.45;;;2.40;;
63536;SDS011;49686;51.880;5.632;2023-02-05T12:59:39;11.45;;;1.73;;
63536;SDS011;49686;51.880;5.632;2023-02-05T13:02:17;17.63;;;2.90;;
63536;SDS011;49686;51.880;5.632;2023-02-05T13:04:50;13.38;;;1.67;;
63536;SDS011;49686;51.880;5.632;2023-02-05T13:07:29;15.70;;;2.03;;
63536;SDS011;49686;51.880;5.632;2023-02-05T13:10:00;16.35;;;1.77;;
63536;SDS011;49686;51.880;5.632;2023-02-05T13:12:31;7.72;;;3.20;;
63536;SDS011;49686;51.880;5.632;2023-02-05T13:15:04;16.60;;;2.60;;
63536;SDS011;49686;51.880;5.632;2023-02-05T13:17:41;18.60;;;2.25;;
63536;SDS011;49686;51.880;5.632;2023-02-05T13:20:18;11.52;;;1.67;;
63536;SDS011;49686;51.880;5.632;2023-02-05T13:22:53;12.98;;;1.95;;
63536;SDS011;49686;51.880;5.632;2023-02-05T13:25:23;17.38;;;2.53;;
63536;SDS011;49686;51.880;5.632;2023-02-05T13:28:15;14.63;;;2.50;;
63536;SDS011;49686;51.880;5.632;2023-02-05T13:30:54;17.17;;;2.33;;
63536;SDS011;49686;51.880;5.632;2023-02-05T13:33:23;11.07;;;1.90;;
63536;SDS011;49686;51.880;5.632;2023-02-05T13:35:54;11.75;;;1.90;;
63536;SDS011;49686;51.880;5.632;2023-02-05T13:38:34;13.30;;;1.92;;
63536;SDS011;49686;51.880;5.632;2023-02-05T13:41:19;7.40;;;2.72;;
63536;SDS011;49686;51.880;5.632;2023-02-05T13:44:06;14.00;;;2.20;;
63536;SDS011;49686;51.880;5.632;2023-02-05T13:47:08;13.70;;;2.50;;
63536;SDS011;49686;51.880;5.632;2023-02-05T13:50:03;12.02;;;2.95;;
63536;SDS011;49686;51.880;5.632;2023-02-05T13:53:04;15.60;;;2.28;;
63536;SDS011;49686;51.880;5.632;2023-02-05T13:55:44;11.77;;;2.50;;
63536;SDS011;49686;51.880;5.632;2023-02-05T13:58:38;10.00;;;1.70;;
63536;SDS011;49686;51.880;5.632;2023-02-05T14:01:13;7.40;;;1.38;;
63536;SDS011;49686;51.880;5.632;2023-02-05T14:03:50;12.27;;;2.05;;
63536;SDS011;49686;51.880;5.632;2023-02-05T14:06:21;11.18;;;2.20;;
63536;SDS011;49686;51.880;5.632;2023-02-05T14:08:55;13.02;;;1.65;;
63536;SDS011;49686;51.880;5.632;2023-02-05T14:11:27;10.23;;;1.63;;
63536;SDS011;49686;51.880;5.632;2023-02-05T14:16:57;9.32;;;1.63;;
63536;SDS011;49686;51.880;5.632;2023-02-05T14:19:25;10.07;;;1.98;;
63536;SDS011;49686;51.880;5.632;2023-02-05T14:25:08;9.10;;;1.58;;
63536;SDS011;49686;51.880;5.632;2023-02-05T14:31:04;11.48;;;2.13;;
63536;SDS011;49686;51.880;5.632;2023-02-05T14:33:33;11.45;;;1.73;;
63536;SDS011;49686;51.880;5.632;2023-02-05T14:39:04;12.55;;;2.80;;
63536;SDS011;49686;51.880;5.632;2023-02-05T14:41:44;15.65;;;2.30;;
63536;SDS011;49686;51.880;5.632;2023-02-05T14:44:21;13.40;;;2.28;;
63536;SDS011;49686;51.880;5.632;2023-02-05T14:46:53;14.57;;;2.05;;
63536;SDS011;49686;51.880;5.632;2023-02-05T14:49:24;14.15;;;2.17;;
63536;SDS011;49686;51.880;5.632;2023-02-05T14:51:55;6.10;;;1.58;;
63536;SDS011;49686;51.880;5.632;2023-02-05T14:54:26;12.10;;;1.85;;
63536;SDS011;49686;51.880;5.632;2023-02-05T14:57:07;16.25;;;1.80;;
63536;SDS011;49686;51.880;5.632;2023-02-05T14:59:39;9.85;;;1.88;;
63536;SDS011;49686;51.880;5.632;2023-02-05T15:05:09;11.00;;;2.40;;
63536;SDS011;49686;51.880;5.632;2023-02-05T15:07:40;9.55;;;2.00;;
63536;SDS011;49686;51.880;5.632;2023-02-05T15:10:12;9.02;;;1.90;;
63536;SDS011;49686;51.880;5.632;2023-02-05T15:12:49;12.05;;;2.25;;
63536;SDS011;49686;51.880;5.632;2023-02-05T15:15:28;10.60;;;1.92;;
63536;SDS011;49686;51.880;5.632;2023-02-05T15:18:01;13.85;;;1.80;;
63536;SDS011;49686;51.880;5.632;2023-02-05T15:20:31;11.20;;;2.03;;
63536;SDS011;49686;51.880;5.632;2023-02-05T15:23:04;17.52;;;2.42;;
63536;SDS011;49686;51.880;5.632;2023-02-05T15:25:40;9.95;;;2.50;;
63536;SDS011;49686;51.880;5.632;2023-02-05T15:28:16;17.73;;;2.40;;